Jasper, NY (14855)

9:48 AM EDT on September 05, 2015 (GMT -0400)
Sylvester | | Change Station
CLOSE
Current Station
Personal Weather Station
Location: Westfield, PA
Elevation: 1811 ft
Nearby Weather Stations

Elev 1811 ft 41.96 °N, 77.56 °W | Updated 1 minute ago

Mostly Cloudy
Mostly Cloudy
69.6 °F
Feels Like 69.6 °F
N
0.0
Wind Variable Wind from ESE
Gusts 5.0 mph

Today
High -- | Low -- °F
--% Chance of Precip.
Yesterday
High -- | Low -- °F
Precip. -- in
6:39 AM 7:37 PM
Waning Gibbous, 48% visible
Pressure 30.26 in
Visibility 4.0 miles
Clouds Overcast 1100 ft
Dew Point 64 °F
Humidity 84%
Rainfall 0.00 in
Snow Depth Not available.
UV 0.0 out of 12
Pollen 10.50 out of 12
Air Quality Not available.
Flu Activity Not available.
METAR KELZ 051256Z AUTO 18007KT 4SM HZ OVC011 22/18 A3029 RMK AO2 SLP246 T02170183
Pressure 30.26 in
Visibility 4.0 miles
Clouds Overcast 1100 ft
Dew Point 64 °F
Humidity 84%
Rainfall 0.00 in
Snow Depth Not available.
UV 0.0 out of 12
Pollen 10.50 out of 12
Air Quality Not available.
Flu Activity Not available.
METAR KELZ 051256Z AUTO 18007KT 4SM HZ OVC011 22/18 A3029 RMK AO2 SLP246 T02170183

10-Day Weather Forecast

×

Almanac

Astronomy

Sep. 05, 2015 Rise Set
Actual Time
Civil Twilight
Nautical Twilight
Astronomical Twilight
Moon
Length of Visible Light
Length of Day
Tomorrow will be .
, % of the Moon is Illuminated

Today's Extremes

State Highs State Lows

Community

WunderPhotos

Upload Photos

1,852,464 photos uploaded!

WunderBlogs® & News

Nearby

Air Quality

  Air Quality AQ Index Pollutant
Not available.

Snow Depth

Station Depth Elevation

Earthquake Activity

City Distance Mag. Time & Date
Minimum magnitude displayed is 2.5.

Coastal Water Temperatures

Place Temperature

Stations

Nearby Weather Stations

Station Location Temp. Windchill Dew Point Humidity Wind Precip. Elev Updated Type